createdAt,value
2024-01-24T00:01:40.692Z,5.70
2024-01-24T00:04:08.479Z,4.90
2024-01-24T00:06:36.348Z,6.23
2024-01-24T00:09:04.360Z,6.10
2024-01-24T00:11:31.947Z,5.80
2024-01-24T00:14:01.366Z,6.23
2024-01-24T00:16:29.822Z,6.33
2024-01-24T00:18:57.619Z,5.20
2024-01-24T00:21:25.424Z,5.60
2024-01-24T00:23:52.978Z,5.27
2024-01-24T00:26:20.591Z,4.63
2024-01-24T00:28:48.352Z,5.97
2024-01-24T00:31:17.326Z,5.10
2024-01-24T00:33:45.155Z,4.70
2024-01-24T00:36:12.802Z,4.07
2024-01-24T00:38:40.837Z,3.70
2024-01-24T00:41:08.619Z,4.07
2024-01-24T00:43:36.245Z,3.27
2024-01-24T00:46:04.211Z,2.93
2024-01-24T00:48:33.243Z,3.33
2024-01-24T00:51:01.027Z,3.67
2024-01-24T00:53:30.787Z,4.00
2024-01-24T00:55:58.587Z,3.80
2024-01-24T00:58:26.437Z,4.27
2024-01-24T01:00:54.239Z,7.27
2024-01-24T01:03:21.901Z,8.23
2024-01-24T01:05:50.970Z,7.33
2024-01-24T01:08:18.777Z,6.17
2024-01-24T01:10:46.397Z,4.13
2024-01-24T01:13:14.030Z,2.70
2024-01-24T01:15:42.730Z,2.93
2024-01-24T01:18:10.538Z,3.10
2024-01-24T01:20:38.351Z,3.03
2024-01-24T01:23:08.544Z,2.40
2024-01-24T01:25:36.373Z,1.83
2024-01-24T01:28:04.024Z,2.20
2024-01-24T01:30:31.929Z,2.47
2024-01-24T01:32:59.550Z,2.70
2024-01-24T01:35:27.431Z,2.43
2024-01-24T01:37:55.338Z,1.93
2024-01-24T01:40:24.583Z,2.37
2024-01-24T01:42:52.233Z,2.00
2024-01-24T01:45:20.323Z,1.60
2024-01-24T01:47:48.260Z,1.67
2024-01-24T01:50:16.737Z,1.70
2024-01-24T01:52:45.308Z,1.77
2024-01-24T01:55:14.046Z,1.40
2024-01-24T01:57:44.448Z,1.37
2024-01-24T02:00:20.220Z,1.50
2024-01-24T02:02:48.295Z,1.40
2024-01-24T02:05:16.587Z,1.33
2024-01-24T02:07:44.950Z,1.33
2024-01-24T02:10:13.028Z,1.27
2024-01-24T02:12:40.765Z,1.10
2024-01-24T02:15:10.753Z,1.03
2024-01-24T02:17:38.548Z,1.23
2024-01-24T02:20:07.966Z,1.40
2024-01-24T02:22:35.691Z,1.10
2024-01-24T02:25:04.928Z,1.00
2024-01-24T02:27:32.530Z,1.37
2024-01-24T02:30:00.856Z,1.10
2024-01-24T02:32:28.498Z,1.00
2024-01-24T02:34:56.407Z,1.30
2024-01-24T02:37:24.388Z,0.90
2024-01-24T02:39:52.078Z,0.90
2024-01-24T02:42:21.172Z,1.00
2024-01-24T02:44:49.280Z,1.20
2024-01-24T02:47:18.033Z,1.20
2024-01-24T02:49:45.841Z,0.90
2024-01-24T02:52:13.821Z,0.97
2024-01-24T02:54:42.496Z,1.00
2024-01-24T02:57:10.670Z,1.17
2024-01-24T02:59:39.796Z,1.10
2024-01-24T03:02:07.377Z,1.10
2024-01-24T03:04:35.145Z,0.97
2024-01-24T03:07:02.938Z,1.07
2024-01-24T03:09:30.785Z,1.10
2024-01-24T03:11:58.442Z,0.93
2024-01-24T03:14:26.727Z,0.80
2024-01-24T03:16:55.791Z,0.80
2024-01-24T03:19:23.939Z,0.80
2024-01-24T03:21:51.753Z,0.90
2024-01-24T03:24:19.387Z,1.10
2024-01-24T03:26:47.006Z,0.93
2024-01-24T03:29:15.195Z,0.90
2024-01-24T03:31:44.043Z,0.90
2024-01-24T03:34:14.269Z,0.63
2024-01-24T03:36:42.034Z,0.70
2024-01-24T03:39:10.648Z,0.67
2024-01-24T03:41:38.806Z,0.60
2024-01-24T03:44:06.406Z,0.87
2024-01-24T03:46:33.942Z,0.60
2024-01-24T03:49:01.693Z,0.90
2024-01-24T03:51:31.112Z,0.70
2024-01-24T03:53:58.664Z,0.63
2024-01-24T03:56:26.434Z,0.60
2024-01-24T03:58:54.317Z,0.60
2024-01-24T04:01:22.488Z,0.60
2024-01-24T04:03:50.297Z,0.63
2024-01-24T04:06:18.017Z,0.50
2024-01-24T04:08:47.069Z,0.70
2024-01-24T04:11:14.582Z,0.60
2024-01-24T04:13:43.435Z,0.50
2024-01-24T04:16:11.040Z,0.50
2024-01-24T04:18:39.221Z,0.47
2024-01-24T04:21:06.942Z,0.43
2024-01-24T04:23:34.552Z,0.60
2024-01-24T04:26:06.302Z,0.40
2024-01-24T04:28:34.298Z,0.70
2024-01-24T04:31:02.079Z,0.40
2024-01-24T04:33:30.304Z,0.33
2024-01-24T04:35:58.080Z,0.50
2024-01-24T04:38:26.200Z,0.50
2024-01-24T04:40:53.882Z,0.30
2024-01-24T04:43:23.134Z,0.50
2024-01-24T04:45:50.887Z,0.60
2024-01-24T04:48:19.044Z,0.40
2024-01-24T04:50:46.901Z,0.50
2024-01-24T04:53:14.782Z,1.00
2024-01-24T04:55:42.445Z,0.40
2024-01-24T04:58:10.127Z,0.90
2024-01-24T05:00:40.206Z,0.70
2024-01-24T05:03:08.100Z,0.50
2024-01-24T05:05:35.775Z,0.50
2024-01-24T05:08:03.770Z,0.60
2024-01-24T05:10:31.538Z,0.70
2024-01-24T05:12:59.449Z,0.80
2024-01-24T05:15:27.221Z,1.00
2024-01-24T05:17:56.980Z,1.10
2024-01-24T05:20:24.636Z,1.00
2024-01-24T05:22:52.289Z,1.40
2024-01-24T05:25:20.526Z,1.30
2024-01-24T05:27:48.148Z,1.50
2024-01-24T05:30:20.620Z,1.80
2024-01-24T05:32:59.458Z,1.83
2024-01-24T05:35:27.191Z,2.00
2024-01-24T05:37:55.073Z,1.50
2024-01-24T05:40:22.985Z,1.93
2024-01-24T05:42:53.378Z,1.77
2024-01-24T05:45:21.551Z,1.73
2024-01-24T05:47:49.330Z,1.87
2024-01-24T05:50:18.507Z,2.00
2024-01-24T05:52:46.474Z,2.73
2024-01-24T05:55:14.326Z,2.00
2024-01-24T05:57:42.718Z,2.33
2024-01-24T06:00:15.186Z,2.33
2024-01-24T06:02:44.505Z,2.63
2024-01-24T06:05:13.406Z,1.70
2024-01-24T06:07:43.078Z,2.43
2024-01-24T06:10:11.277Z,2.40
2024-01-24T06:12:39.137Z,2.43
2024-01-24T06:15:09.001Z,2.63
2024-01-24T06:17:36.961Z,2.47
2024-01-24T06:20:04.881Z,3.10
2024-01-24T06:22:32.532Z,2.60
2024-01-24T06:25:07.304Z,2.43
2024-01-24T06:27:36.589Z,2.57
2024-01-24T06:30:18.473Z,2.50
2024-01-24T06:32:50.700Z,2.90
2024-01-24T06:35:18.787Z,2.70
2024-01-24T06:37:46.636Z,2.97
2024-01-24T06:40:16.535Z,2.90
2024-01-24T06:42:44.188Z,2.83
2024-01-24T06:45:12.191Z,2.47
2024-01-24T06:47:39.959Z,3.00
2024-01-24T06:50:10.096Z,3.30
2024-01-24T06:52:38.292Z,3.37
2024-01-24T06:55:06.391Z,3.07
2024-01-24T06:57:35.588Z,3.00
2024-01-24T07:00:05.731Z,3.13
2024-01-24T07:02:33.375Z,3.30
2024-01-24T07:05:02.504Z,3.37
2024-01-24T07:07:30.256Z,3.53
2024-01-24T07:09:58.310Z,2.97
2024-01-24T07:12:26.154Z,3.67
2024-01-24T07:14:55.284Z,3.47
2024-01-24T07:17:22.976Z,3.87
2024-01-24T07:19:52.243Z,3.77
2024-01-24T07:22:20.071Z,3.83
2024-01-24T07:24:48.046Z,4.50
2024-01-24T07:27:16.027Z,3.70
2024-01-24T07:29:43.712Z,4.97
2024-01-24T07:32:12.948Z,4.30
2024-01-24T07:34:40.938Z,4.07
2024-01-24T07:37:09.049Z,5.03
2024-01-24T07:39:37.054Z,4.53
2024-01-24T07:42:05.076Z,4.50
2024-01-24T07:44:33.312Z,4.20
2024-01-24T07:47:02.767Z,4.63
2024-01-24T07:49:33.392Z,4.13
2024-01-24T07:52:02.552Z,4.33
2024-01-24T07:54:30.707Z,4.17
2024-01-24T07:56:58.740Z,4.67
2024-01-24T07:59:26.729Z,4.30
2024-01-24T08:01:54.486Z,4.50
2024-01-24T08:04:22.567Z,4.33
2024-01-24T08:06:51.704Z,4.83
2024-01-24T08:09:19.897Z,4.20
2024-01-24T08:11:47.882Z,4.63
2024-01-24T08:14:17.276Z,4.20
2024-01-24T08:17:00.205Z,4.43
2024-01-24T08:19:28.092Z,4.90
2024-01-24T08:21:57.296Z,4.67
2024-01-24T08:24:25.268Z,5.53
2024-01-24T08:26:56.440Z,4.13
2024-01-24T08:29:35.916Z,4.33
2024-01-24T08:32:06.902Z,4.60
2024-01-24T08:34:38.134Z,4.10
2024-01-24T08:37:08.179Z,5.00
2024-01-24T08:39:36.232Z,3.77
2024-01-24T08:42:05.132Z,4.20
2024-01-24T08:44:33.214Z,4.33
2024-01-24T08:47:01.400Z,4.20
2024-01-24T08:49:29.573Z,4.90
2024-01-24T08:52:00.485Z,4.63
2024-01-24T08:54:30.528Z,4.17
2024-01-24T08:56:58.882Z,5.17
2024-01-24T08:59:28.599Z,4.30
2024-01-24T09:01:58.408Z,4.87
2024-01-24T09:04:27.060Z,4.47
2024-01-24T09:06:59.224Z,5.17
2024-01-24T09:09:30.677Z,4.73
2024-01-24T09:12:01.323Z,5.10
2024-01-24T09:14:29.172Z,5.90
2024-01-24T09:16:57.000Z,4.80
2024-01-24T09:19:25.245Z,5.97
2024-01-24T09:21:53.770Z,5.27
2024-01-24T09:24:21.637Z,4.57
2024-01-24T09:26:49.554Z,4.83
2024-01-24T09:29:19.393Z,5.13
2024-01-24T09:31:48.147Z,4.80
2024-01-24T09:34:16.629Z,4.40
2024-01-24T09:36:44.908Z,4.57
2024-01-24T09:39:13.256Z,5.23
2024-01-24T09:41:41.898Z,5.00
2024-01-24T09:44:10.784Z,5.57
2024-01-24T09:46:41.639Z,5.23
2024-01-24T09:49:09.735Z,5.50
2024-01-24T09:51:38.491Z,5.30
2024-01-24T09:54:07.184Z,4.97
2024-01-24T09:56:35.868Z,5.07
2024-01-24T09:59:03.956Z,5.53
2024-01-24T10:01:32.472Z,5.67
2024-01-24T10:04:02.905Z,5.37
2024-01-24T10:06:31.101Z,5.20
2024-01-24T10:08:59.026Z,5.17
2024-01-24T10:11:26.936Z,5.53
2024-01-24T10:13:57.300Z,5.77
2024-01-24T10:16:25.381Z,5.50
2024-01-24T10:18:53.122Z,4.97
2024-01-24T10:21:22.980Z,5.10
2024-01-24T10:23:50.905Z,4.70
2024-01-24T10:26:18.998Z,4.90
2024-01-24T10:28:46.883Z,5.33
2024-01-24T10:31:15.029Z,5.43
2024-01-24T10:33:42.983Z,4.73
2024-01-24T10:36:18.058Z,5.07
2024-01-24T10:38:59.676Z,5.17
2024-01-24T10:41:30.553Z,5.57
2024-01-24T10:43:59.099Z,5.13
2024-01-24T10:46:27.338Z,5.30
2024-01-24T10:48:55.704Z,5.30
2024-01-24T10:51:23.971Z,5.13
2024-01-24T10:53:54.184Z,4.50
2024-01-24T10:56:25.862Z,4.27
2024-01-24T10:58:53.729Z,4.73
2024-01-24T11:01:21.524Z,4.93
2024-01-24T11:03:55.348Z,5.00
2024-01-24T11:06:24.577Z,4.80
2024-01-24T11:08:57.000Z,5.40
2024-01-24T11:11:26.940Z,5.47
2024-01-24T11:13:54.589Z,4.90
2024-01-24T11:16:41.014Z,4.73
2024-01-24T11:19:22.717Z,5.07
2024-01-24T11:21:51.110Z,4.93
2024-01-24T11:24:33.994Z,5.07
2024-01-24T11:27:03.592Z,5.03
2024-01-24T11:29:35.233Z,4.93
2024-01-24T11:32:06.938Z,5.73
2024-01-24T11:34:35.451Z,4.33
2024-01-24T11:37:07.737Z,5.17
2024-01-24T11:39:37.016Z,4.57
2024-01-24T11:42:19.795Z,4.80
2024-01-24T11:44:49.134Z,4.50
2024-01-24T11:47:18.057Z,5.67
2024-01-24T11:49:49.848Z,4.57
2024-01-24T11:52:22.005Z,5.10
2024-01-24T11:54:52.385Z,4.87
2024-01-24T11:57:20.471Z,5.57
2024-01-24T11:59:49.596Z,5.33
2024-01-24T12:02:17.874Z,5.33
2024-01-24T12:04:45.698Z,4.83
2024-01-24T12:07:13.820Z,5.03
2024-01-24T12:09:41.974Z,5.07
2024-01-24T12:12:09.993Z,4.93
2024-01-24T12:14:38.247Z,5.07
2024-01-24T12:17:07.773Z,5.27
2024-01-24T12:19:35.747Z,5.10
2024-01-24T12:22:06.347Z,5.57
2024-01-24T12:24:34.264Z,4.83
2024-01-24T12:27:02.719Z,4.13
2024-01-24T12:29:32.841Z,4.47
2024-01-24T12:32:01.951Z,4.57
2024-01-24T12:34:32.300Z,4.63
2024-01-24T12:37:01.473Z,5.43
2024-01-24T12:39:29.731Z,4.83
2024-01-24T12:41:57.596Z,3.90
2024-01-24T12:44:25.437Z,4.03
2024-01-24T12:46:57.847Z,4.07
2024-01-24T12:49:26.237Z,5.43
2024-01-24T12:51:55.979Z,5.70
2024-01-24T12:54:25.733Z,4.60
2024-01-24T12:56:53.625Z,4.40
2024-01-24T12:59:21.296Z,4.93
2024-01-24T13:01:50.114Z,4.60
2024-01-24T13:04:18.500Z,4.17
2024-01-24T13:06:46.457Z,4.97
2024-01-24T13:09:15.528Z,5.27
2024-01-24T13:11:43.196Z,4.60
2024-01-24T13:14:11.109Z,4.63
2024-01-24T13:16:39.054Z,4.93
2024-01-24T13:19:06.781Z,5.20
2024-01-24T13:21:35.785Z,5.17
2024-01-24T13:24:05.808Z,4.47
2024-01-24T13:26:35.114Z,3.83
2024-01-24T13:29:02.996Z,4.17
2024-01-24T13:31:30.722Z,4.47
2024-01-24T13:33:58.600Z,4.77
2024-01-24T13:36:26.472Z,4.17
2024-01-24T13:38:54.312Z,4.80
2024-01-24T13:41:24.076Z,4.43
2024-01-24T13:43:54.241Z,4.23
2024-01-24T13:46:22.005Z,5.03
2024-01-24T13:48:50.834Z,5.40
2024-01-24T13:51:24.725Z,3.77
2024-01-24T13:53:58.877Z,4.00
2024-01-24T13:56:26.734Z,4.87
2024-01-24T13:58:56.118Z,4.20
2024-01-24T14:01:23.983Z,5.23
2024-01-24T14:03:52.559Z,4.60
2024-01-24T14:06:20.819Z,4.30
2024-01-24T14:08:48.725Z,3.73
2024-01-24T14:11:17.227Z,3.53
2024-01-24T14:13:50.054Z,3.70
2024-01-24T14:16:19.961Z,4.50
2024-01-24T14:18:47.942Z,3.77
2024-01-24T14:21:15.797Z,4.57
2024-01-24T14:23:44.982Z,4.07
2024-01-24T14:26:14.376Z,4.50
2024-01-24T14:28:42.094Z,4.77
2024-01-24T14:31:09.773Z,3.90
2024-01-24T14:33:39.140Z,4.87
2024-01-24T14:36:07.355Z,4.40
2024-01-24T14:38:35.012Z,4.30
2024-01-24T14:41:02.813Z,4.03
2024-01-24T14:43:31.694Z,4.43
2024-01-24T14:45:59.710Z,4.23
2024-01-24T14:48:27.556Z,4.17
2024-01-24T14:50:56.639Z,5.23
2024-01-24T14:53:24.467Z,3.87
2024-01-24T14:55:52.181Z,5.03
2024-01-24T14:58:19.881Z,4.20
2024-01-24T15:00:48.522Z,3.80
2024-01-24T15:03:16.845Z,4.27
2024-01-24T15:05:44.755Z,4.30
2024-01-24T15:08:15.391Z,4.20
2024-01-24T15:10:43.070Z,4.73
2024-01-24T15:13:10.803Z,4.33
2024-01-24T15:15:39.031Z,5.30
2024-01-24T15:18:07.062Z,4.83
2024-01-24T15:20:38.380Z,4.73
2024-01-24T15:23:10.629Z,4.40
2024-01-24T15:25:40.162Z,4.47
2024-01-24T15:28:08.162Z,4.23
2024-01-24T15:30:35.914Z,4.97
2024-01-24T15:33:04.578Z,4.20
2024-01-24T15:35:32.523Z,4.60
2024-01-24T15:38:00.440Z,4.17
2024-01-24T15:40:28.974Z,4.60
2024-01-24T15:43:00.976Z,5.00
2024-01-24T15:45:29.039Z,4.00
2024-01-24T15:47:57.007Z,4.80
2024-01-24T15:50:24.828Z,4.70
2024-01-24T15:52:52.974Z,4.30
2024-01-24T15:55:21.004Z,5.30
2024-01-24T15:57:48.860Z,5.23
2024-01-24T16:00:18.716Z,4.97
2024-01-24T16:02:47.150Z,4.33
2024-01-24T16:05:19.995Z,3.80
2024-01-24T16:07:47.778Z,4.07
2024-01-24T16:10:15.616Z,4.03
2024-01-24T16:12:43.414Z,4.30
2024-01-24T16:15:11.881Z,3.90
2024-01-24T16:17:41.011Z,3.70
2024-01-24T16:20:12.080Z,4.40
2024-01-24T16:22:47.213Z,4.03
2024-01-24T16:25:22.193Z,5.30
2024-01-24T16:27:50.140Z,5.13
2024-01-24T16:30:19.779Z,4.20
2024-01-24T16:32:52.620Z,4.30
2024-01-24T16:35:20.577Z,4.23
2024-01-24T16:37:48.665Z,5.03
2024-01-24T16:40:16.520Z,4.23
2024-01-24T16:42:44.299Z,4.63
2024-01-24T16:45:12.788Z,4.50
2024-01-24T16:47:40.931Z,4.40
2024-01-24T16:50:10.554Z,4.83
2024-01-24T16:52:38.209Z,4.73
2024-01-24T16:55:06.431Z,4.33
2024-01-24T16:57:34.445Z,4.57
2024-01-24T17:00:02.424Z,4.37
2024-01-24T17:02:38.319Z,4.97
2024-01-24T17:05:12.581Z,4.17
2024-01-24T17:07:40.400Z,4.10
2024-01-24T17:10:09.128Z,4.40
2024-01-24T17:12:37.152Z,4.30
2024-01-24T17:15:05.159Z,4.23
2024-01-24T17:17:32.829Z,4.13
2024-01-24T17:20:00.940Z,3.80
2024-01-24T17:22:30.299Z,4.23
2024-01-24T17:24:58.036Z,4.27
2024-01-24T17:27:25.984Z,4.60
2024-01-24T17:29:53.682Z,4.27
2024-01-24T17:32:21.837Z,4.10
2024-01-24T17:34:49.891Z,3.90
2024-01-24T17:37:17.566Z,4.00
2024-01-24T17:39:48.580Z,3.27
2024-01-24T17:42:16.895Z,4.70
2024-01-24T17:44:44.603Z,3.87
2024-01-24T17:47:12.297Z,3.87
2024-01-24T17:49:40.801Z,4.00
2024-01-24T17:52:08.569Z,4.03
2024-01-24T17:54:36.410Z,3.90
2024-01-24T17:57:05.700Z,4.30
2024-01-24T17:59:33.523Z,4.03
2024-01-24T18:02:01.588Z,4.90
2024-01-24T18:04:29.616Z,4.63
2024-01-24T18:06:58.515Z,4.80
2024-01-24T18:09:26.564Z,4.73
2024-01-24T18:11:54.175Z,4.97
2024-01-24T18:14:23.917Z,4.57
2024-01-24T18:16:51.789Z,4.20
2024-01-24T18:19:19.630Z,4.50
2024-01-24T18:21:47.647Z,3.80
2024-01-24T18:24:15.592Z,4.60
2024-01-24T18:26:43.406Z,4.17
2024-01-24T18:29:11.361Z,4.47
2024-01-24T18:31:40.641Z,4.03
2024-01-24T18:34:08.244Z,5.50
2024-01-24T18:36:36.104Z,5.80
2024-01-24T18:39:04.195Z,4.13
2024-01-24T18:41:31.841Z,4.23
2024-01-24T18:43:59.655Z,4.33
2024-01-24T18:46:29.666Z,4.60
2024-01-24T18:49:01.249Z,5.17
2024-01-24T18:51:31.099Z,4.37
2024-01-24T18:53:58.943Z,5.50
2024-01-24T18:56:28.980Z,4.77
2024-01-24T18:58:57.407Z,4.80
2024-01-24T19:01:25.187Z,4.87
2024-01-24T19:03:57.757Z,5.30
2024-01-24T19:06:29.025Z,4.57
2024-01-24T19:08:58.407Z,5.70
2024-01-24T19:11:28.573Z,5.33
2024-01-24T19:13:56.241Z,5.60
2024-01-24T19:16:25.614Z,6.10
2024-01-24T19:18:54.528Z,5.60
2024-01-24T19:21:22.312Z,5.23
2024-01-24T19:23:51.453Z,5.20
2024-01-24T19:26:19.638Z,5.83
2024-01-24T19:28:47.602Z,5.30
2024-01-24T19:31:15.496Z,5.23
2024-01-24T19:33:43.345Z,5.53
2024-01-24T19:36:12.153Z,5.97
2024-01-24T19:38:39.985Z,5.07
2024-01-24T19:41:09.465Z,5.57
2024-01-24T19:43:38.303Z,5.47
2024-01-24T19:46:06.544Z,5.97
2024-01-24T19:48:34.547Z,5.93
2024-01-24T19:51:02.394Z,6.20
2024-01-24T19:53:33.826Z,6.80
2024-01-24T19:56:02.417Z,5.53
2024-01-24T19:58:31.946Z,5.07
2024-01-24T20:01:04.563Z,6.47
2024-01-24T20:03:33.192Z,7.13
2024-01-24T20:06:02.675Z,6.33
2024-01-24T20:08:30.419Z,5.93
2024-01-24T20:10:58.205Z,6.20
2024-01-24T20:13:26.072Z,6.20
2024-01-24T20:15:58.656Z,6.43
2024-01-24T20:18:27.057Z,6.53
2024-01-24T20:20:55.170Z,6.00
2024-01-24T20:23:24.153Z,6.17
2024-01-24T20:25:52.934Z,6.60
2024-01-24T20:28:21.388Z,5.53
2024-01-24T20:30:49.154Z,6.60
2024-01-24T20:33:19.402Z,6.13
2024-01-24T20:35:47.284Z,5.07
2024-01-24T20:38:15.580Z,6.47
2024-01-24T20:40:43.348Z,6.83
2024-01-24T20:43:11.222Z,6.37
2024-01-24T20:45:39.264Z,6.27
2024-01-24T20:48:15.111Z,6.73
2024-01-24T20:50:45.428Z,6.40
2024-01-24T20:53:17.989Z,6.80
2024-01-24T20:55:46.105Z,5.93
2024-01-24T20:58:14.286Z,6.03
2024-01-24T21:00:42.545Z,6.60
2024-01-24T21:03:10.568Z,6.30
2024-01-24T21:05:38.842Z,6.30
2024-01-24T21:08:09.222Z,6.70
2024-01-24T21:10:42.068Z,7.20
2024-01-24T21:13:16.312Z,7.40
2024-01-24T21:15:44.199Z,7.13
2024-01-24T21:18:11.945Z,6.53
2024-01-24T21:20:39.789Z,6.40
2024-01-24T21:23:08.948Z,6.87
2024-01-24T21:25:37.041Z,6.83
2024-01-24T21:28:04.872Z,6.60
2024-01-24T21:30:32.673Z,6.53
2024-01-24T21:33:00.564Z,6.60
2024-01-24T21:35:28.606Z,6.87
2024-01-24T21:37:56.730Z,6.90
2024-01-24T21:40:26.429Z,6.17
2024-01-24T21:42:54.325Z,7.23
2024-01-24T21:45:22.265Z,6.13
2024-01-24T21:47:50.368Z,6.23
2024-01-24T21:50:18.146Z,7.27
2024-01-24T21:52:46.882Z,7.17
2024-01-24T21:55:14.836Z,7.27
2024-01-24T21:57:51.399Z,6.83
2024-01-24T22:00:19.773Z,6.70
2024-01-24T22:02:47.514Z,6.03
2024-01-24T22:05:17.793Z,6.60
2024-01-24T22:07:47.300Z,6.77
2024-01-24T22:10:15.117Z,6.83
2024-01-24T22:12:44.206Z,7.97
2024-01-24T22:15:12.454Z,6.50
2024-01-24T22:17:40.531Z,6.40
2024-01-24T22:20:09.272Z,6.53
2024-01-24T22:22:37.846Z,7.27
2024-01-24T22:25:06.360Z,6.47
2024-01-24T22:27:34.094Z,6.67
2024-01-24T22:30:05.836Z,6.70
2024-01-24T22:32:33.768Z,6.63
2024-01-24T22:35:03.201Z,6.63
2024-01-24T22:37:31.142Z,6.70
2024-01-24T22:39:59.087Z,7.10
2024-01-24T22:42:26.825Z,6.57
2024-01-24T22:44:54.461Z,6.83
2024-01-24T22:47:23.495Z,7.00
2024-01-24T22:49:51.260Z,7.27
2024-01-24T22:52:19.449Z,6.50
2024-01-24T22:54:47.285Z,6.60
2024-01-24T22:57:14.927Z,6.57
2024-01-24T22:59:42.643Z,7.10
2024-01-24T23:02:10.462Z,6.57
2024-01-24T23:04:39.985Z,7.23
2024-01-24T23:07:07.985Z,7.10
2024-01-24T23:09:35.636Z,6.40
2024-01-24T23:12:03.296Z,7.80
2024-01-24T23:14:30.925Z,6.67
2024-01-24T23:16:59.073Z,6.33
2024-01-24T23:19:26.769Z,6.97
2024-01-24T23:21:55.803Z,6.53
2024-01-24T23:24:23.483Z,5.83
2024-01-24T23:26:51.455Z,6.70
2024-01-24T23:29:19.543Z,6.10
2024-01-24T23:31:47.605Z,6.80
2024-01-24T23:34:15.334Z,6.57
2024-01-24T23:36:43.070Z,6.60
2024-01-24T23:39:12.151Z,6.67
2024-01-24T23:41:40.152Z,5.93
2024-01-24T23:44:08.404Z,6.63
2024-01-24T23:46:36.826Z,6.63
2024-01-24T23:49:04.883Z,6.63
2024-01-24T23:51:35.797Z,6.57
2024-01-24T23:54:04.334Z,6.27
2024-01-24T23:56:33.283Z,7.37
2024-01-24T23:59:01.004Z,7.43
